createdAt,value
2023-05-05T00:01:26.212Z,98105.03
2023-05-05T00:03:27.680Z,98100.78
2023-05-05T00:05:29.079Z,98098.28
2023-05-05T00:07:30.392Z,98100.78
2023-05-05T00:09:31.720Z,98100.75
2023-05-05T00:11:33.085Z,98107.53
2023-05-05T00:13:34.421Z,98106.72
2023-05-05T00:15:36.393Z,98093.03
2023-05-05T00:17:37.844Z,98097.34
2023-05-05T00:19:39.185Z,98096.50
2023-05-05T00:21:40.573Z,98090.53
2023-05-05T00:23:41.877Z,98090.50
2023-05-05T00:25:43.215Z,98086.22
2023-05-05T00:27:44.580Z,98092.19
2023-05-05T00:29:45.935Z,98086.28
2023-05-05T00:31:47.238Z,98088.06
2023-05-05T00:33:48.566Z,98076.19
2023-05-05T00:35:49.900Z,98075.34
2023-05-05T00:37:51.224Z,98077.06
2023-05-05T00:39:52.828Z,97937.56
2023-05-05T00:41:54.209Z,98080.41
2023-05-05T00:43:55.560Z,98076.13
2023-05-05T00:45:56.923Z,98074.44
2023-05-05T00:47:58.349Z,98063.34
2023-05-05T00:49:59.685Z,98070.16
2023-05-05T00:52:01.091Z,98073.63
2023-05-05T00:54:02.382Z,98071.09
2023-05-05T00:56:03.681Z,98060.88
2023-05-05T00:58:05.205Z,98060.88
2023-05-05T01:00:09.828Z,98063.47
2023-05-05T01:02:11.319Z,98054.09
2023-05-05T01:04:12.636Z,98054.91
2023-05-05T01:06:17.123Z,98057.41
2023-05-05T01:08:18.430Z,98054.91
2023-05-05T01:10:20.905Z,98054.09
2023-05-05T01:12:22.396Z,98058.38
2023-05-05T01:14:23.813Z,98058.44
2023-05-05T01:16:25.211Z,98055.03
2023-05-05T01:18:27.672Z,98054.16
2023-05-05T01:20:28.978Z,98046.50
2023-05-05T01:22:30.377Z,98053.31
2023-05-05T01:24:31.671Z,98047.34
2023-05-05T01:26:33.010Z,98044.75
2023-05-05T01:28:34.307Z,98046.50
2023-05-05T01:30:35.673Z,98041.34
2023-05-05T01:32:37.042Z,98045.59
2023-05-05T01:34:38.460Z,98044.84
2023-05-05T01:36:39.863Z,98047.38
2023-05-05T01:38:41.202Z,98043.84
2023-05-05T01:40:43.634Z,98042.91
2023-05-05T01:42:44.969Z,98053.00
2023-05-05T01:44:46.305Z,98042.72
2023-05-05T01:46:47.650Z,98046.13
2023-05-05T01:48:48.944Z,98052.03
2023-05-05T01:50:50.297Z,98042.72
2023-05-05T01:52:51.779Z,98045.28
2023-05-05T01:54:53.073Z,98043.59
2023-05-05T01:56:54.516Z,98050.38
2023-05-05T01:58:55.909Z,98044.34
2023-05-05T02:00:57.264Z,98042.59
2023-05-05T02:02:59.804Z,98051.97
2023-05-05T02:05:02.182Z,98044.25
2023-05-05T02:07:03.475Z,98051.00
2023-05-05T02:09:04.823Z,98045.03
2023-05-05T02:11:06.155Z,98046.78
2023-05-05T02:13:07.662Z,98053.53
2023-05-05T02:15:09.154Z,98040.81
2023-05-05T02:17:10.841Z,98056.09
2023-05-05T02:19:12.313Z,98054.41
2023-05-05T02:21:14.850Z,98062.94
2023-05-05T02:23:16.190Z,98046.00
2023-05-05T02:25:18.000Z,98037.56
2023-05-05T02:27:19.346Z,98040.09
2023-05-05T02:29:20.685Z,97937.78
2023-05-05T02:31:22.088Z,98054.59
2023-05-05T02:33:23.435Z,98056.22
2023-05-05T02:35:24.747Z,98051.06
2023-05-05T02:37:26.094Z,98058.72
2023-05-05T02:39:27.431Z,98052.81
2023-05-05T02:41:28.733Z,98048.28
2023-05-05T02:43:30.512Z,98050.66
2023-05-05T02:45:31.900Z,98045.09
2023-05-05T02:47:33.220Z,98046.28
2023-05-05T02:49:34.610Z,98041.38
2023-05-05T02:51:36.184Z,98040.72
2023-05-05T02:53:37.482Z,98048.66
2023-05-05T02:55:38.798Z,98042.75
2023-05-05T02:57:40.106Z,98044.22
2023-05-05T02:59:41.792Z,98043.56
2023-05-05T03:01:43.178Z,98041.16
2023-05-05T03:03:44.793Z,98037.56
2023-05-05T03:05:47.525Z,98033.13
2023-05-05T03:07:48.973Z,98037.25
2023-05-05T03:09:50.272Z,98026.13
2023-05-05T03:11:51.563Z,98023.75
2023-05-05T03:13:52.894Z,98026.69
2023-05-05T03:15:54.213Z,98017.81
2023-05-05T03:17:55.736Z,98012.41
2023-05-05T03:19:57.054Z,98014.69
2023-05-05T03:21:58.342Z,98014.53
2023-05-05T03:23:59.675Z,98019.50
2023-05-05T03:26:00.972Z,98012.56
2023-05-05T03:28:02.254Z,98006.41
2023-05-05T03:30:03.705Z,98012.25
2023-05-05T03:32:05.055Z,98021.53
2023-05-05T03:34:07.280Z,98020.56
2023-05-05T03:36:08.741Z,98017.16
2023-05-05T03:38:10.099Z,98020.50
2023-05-05T03:40:11.438Z,98021.22
2023-05-05T03:42:12.734Z,98026.28
2023-05-05T03:44:14.094Z,98032.19
2023-05-05T03:46:16.195Z,98027.91
2023-05-05T03:48:17.681Z,98026.22
2023-05-05T03:50:19.096Z,98022.81
2023-05-05T03:52:20.481Z,98028.84
2023-05-05T03:54:21.778Z,98023.91
2023-05-05T03:56:23.124Z,98035.91
2023-05-05T03:58:24.424Z,98029.22
2023-05-05T04:00:25.724Z,98034.31
2023-05-05T04:02:27.180Z,98030.91
2023-05-05T04:04:28.666Z,98031.84
2023-05-05T04:06:30.025Z,98032.81
2023-05-05T04:08:31.494Z,98028.72
2023-05-05T04:10:32.834Z,98032.22
2023-05-05T04:12:34.189Z,98034.88
2023-05-05T04:14:35.851Z,97932.47
2023-05-05T04:16:37.445Z,98026.53
2023-05-05T04:18:38.771Z,98041.97
2023-05-05T04:20:40.151Z,98039.53
2023-05-05T04:22:41.485Z,98042.09
2023-05-05T04:24:42.801Z,98041.25
2023-05-05T04:26:44.189Z,98036.16
2023-05-05T04:28:45.597Z,98043.00
2023-05-05T04:30:46.953Z,98041.34
2023-05-05T04:32:48.330Z,98043.97
2023-05-05T04:34:49.635Z,98046.59
2023-05-05T04:36:50.935Z,98047.47
2023-05-05T04:38:52.300Z,98050.94
2023-05-05T04:40:53.671Z,98051.84
2023-05-05T04:42:54.975Z,98058.66
2023-05-05T04:44:56.409Z,98064.56
2023-05-05T04:46:58.125Z,98061.16
2023-05-05T04:48:59.513Z,98063.72
2023-05-05T04:51:00.946Z,98060.31
2023-05-05T04:53:02.846Z,98059.41
2023-05-05T04:55:04.713Z,98061.09
2023-05-05T04:57:06.353Z,98065.34
2023-05-05T04:59:08.111Z,98065.28
2023-05-05T05:01:09.848Z,98061.78
2023-05-05T05:03:11.529Z,98070.19
2023-05-05T05:05:12.995Z,98071.00
2023-05-05T05:07:17.493Z,98077.72
2023-05-05T05:09:18.802Z,98074.31
2023-05-05T05:11:20.107Z,98066.59
2023-05-05T05:13:21.497Z,98072.56
2023-05-05T05:15:22.849Z,98063.19
2023-05-05T05:17:24.906Z,98066.59
2023-05-05T05:19:26.384Z,98069.22
2023-05-05T05:21:27.781Z,98068.25
2023-05-05T05:23:29.233Z,98063.09
2023-05-05T05:25:30.566Z,98067.31
2023-05-05T05:27:31.864Z,98061.34
2023-05-05T05:29:33.161Z,98063.97
2023-05-05T05:31:35.110Z,98062.28
2023-05-05T05:33:36.498Z,98064.91
2023-05-05T05:35:38.000Z,98061.53
2023-05-05T05:37:39.305Z,98067.56
2023-05-05T05:39:42.725Z,98066.78
2023-05-05T05:41:44.879Z,98067.63
2023-05-05T05:43:46.269Z,98066.72
2023-05-05T05:45:50.546Z,98070.03
2023-05-05T05:47:51.971Z,98064.00
2023-05-05T05:49:53.355Z,98068.16
2023-05-05T05:51:54.652Z,98065.53
2023-05-05T05:53:58.160Z,98072.31
2023-05-05T05:56:02.242Z,98068.03
2023-05-05T05:58:03.556Z,98072.28
2023-05-05T06:00:05.504Z,98074.06
2023-05-05T06:02:07.654Z,98069.00
2023-05-05T06:04:09.202Z,98071.63
2023-05-05T06:06:10.623Z,98068.28
2023-05-05T06:08:11.975Z,98076.88
2023-05-05T06:10:26.601Z,98069.28
2023-05-05T06:12:29.447Z,98071.94
2023-05-05T06:14:30.780Z,98077.94
2023-05-05T06:16:32.190Z,98089.94
2023-05-05T06:18:33.642Z,98078.91
2023-05-05T06:20:34.960Z,98089.13
2023-05-05T06:22:36.343Z,98083.16
2023-05-05T06:24:37.791Z,98089.00
2023-05-05T06:26:39.092Z,98093.22
2023-05-05T06:28:41.881Z,98099.19
2023-05-05T06:30:43.256Z,98093.13
2023-05-05T06:32:44.600Z,98089.59
2023-05-05T06:34:47.455Z,98089.53
2023-05-05T06:36:48.840Z,98098.88
2023-05-05T06:38:50.781Z,98089.53
2023-05-05T06:40:52.119Z,98082.72
2023-05-05T06:42:53.415Z,98090.38
2023-05-05T06:44:54.716Z,98098.94
2023-05-05T06:46:56.203Z,98096.34
2023-05-05T06:48:57.555Z,98092.06
2023-05-05T06:50:59.213Z,98087.69
2023-05-05T06:53:01.152Z,98098.75
2023-05-05T06:55:03.746Z,98083.38
2023-05-05T06:57:05.159Z,98097.78
2023-05-05T06:59:06.476Z,98086.72
2023-05-05T07:01:08.067Z,98084.16
2023-05-05T07:03:09.528Z,98089.31
2023-05-05T07:05:10.923Z,98080.81
2023-05-05T07:07:12.362Z,98081.72
2023-05-05T07:09:15.244Z,98071.56
2023-05-05T07:11:20.567Z,98075.81
2023-05-05T07:13:21.938Z,98072.41
2023-05-05T07:15:27.567Z,98076.72
2023-05-05T07:17:30.942Z,98069.09
2023-05-05T07:19:32.296Z,98070.94
2023-05-05T07:21:33.758Z,98063.31
2023-05-05T07:23:35.147Z,98066.72
2023-05-05T07:25:36.456Z,98064.22
2023-05-05T07:27:37.792Z,98060.88
2023-05-05T07:29:39.109Z,98061.78
2023-05-05T07:31:40.473Z,98066.94
2023-05-05T07:33:42.279Z,98069.50
2023-05-05T07:35:43.578Z,98052.47
2023-05-05T07:37:45.111Z,98057.47
2023-05-05T07:39:48.712Z,98065.88
2023-05-05T07:41:50.111Z,98065.81
2023-05-05T07:43:51.752Z,98072.50
2023-05-05T07:45:53.104Z,98067.34
2023-05-05T07:47:54.452Z,98069.88
2023-05-05T07:49:55.957Z,98068.16
2023-05-05T07:51:57.392Z,98068.09
2023-05-05T07:53:58.733Z,98062.16
2023-05-05T07:56:00.260Z,98065.53
2023-05-05T07:58:01.619Z,98077.34
2023-05-05T08:00:03.208Z,98078.94
2023-05-05T08:02:04.860Z,98070.34
2023-05-05T08:04:06.263Z,98073.72
2023-05-05T08:06:08.931Z,98081.38
2023-05-05T08:08:10.291Z,98077.09
2023-05-05T08:10:12.032Z,98083.94
2023-05-05T08:12:15.205Z,98078.00
2023-05-05T08:14:16.611Z,98083.13
2023-05-05T08:16:17.934Z,98083.13
2023-05-05T08:18:19.366Z,98081.50
2023-05-05T08:20:21.098Z,98085.75
2023-05-05T08:22:22.445Z,98082.41
2023-05-05T08:24:23.775Z,98083.25
2023-05-05T08:26:25.189Z,98082.41
2023-05-05T08:28:26.516Z,98084.16
2023-05-05T08:30:27.823Z,98082.47
2023-05-05T08:32:29.888Z,98075.69
2023-05-05T08:34:31.468Z,98085.06
2023-05-05T08:36:32.767Z,98085.97
2023-05-05T08:38:34.128Z,98083.47
2023-05-05T08:40:36.445Z,98078.38
2023-05-05T08:42:39.131Z,98083.50
2023-05-05T08:44:40.943Z,98082.69
2023-05-05T08:46:42.285Z,98076.72
2023-05-05T08:48:43.651Z,98074.19
2023-05-05T08:50:44.940Z,98079.31
2023-05-05T08:52:46.840Z,98070.81
2023-05-05T08:54:48.890Z,98071.72
2023-05-05T08:56:51.496Z,98075.97
2023-05-05T08:58:52.856Z,98075.16
2023-05-05T09:00:54.230Z,98075.16
2023-05-05T09:02:55.876Z,98076.03
2023-05-05T09:04:57.391Z,98075.22
2023-05-05T09:06:58.794Z,98072.69
2023-05-05T09:09:00.136Z,98081.19
2023-05-05T09:11:02.241Z,98071.84
2023-05-05T09:13:03.639Z,98066.78
2023-05-05T09:15:05.448Z,98073.63
2023-05-05T09:17:07.105Z,98070.25
2023-05-05T09:19:08.452Z,98082.16
2023-05-05T09:21:09.745Z,98068.59
2023-05-05T09:23:11.136Z,98077.09
2023-05-05T09:25:12.520Z,98067.75
2023-05-05T09:27:13.831Z,98069.50
2023-05-05T09:29:15.159Z,98073.75
2023-05-05T09:31:16.618Z,98068.66
2023-05-05T09:33:18.135Z,98063.59
2023-05-05T09:35:19.498Z,98064.47
2023-05-05T09:37:20.822Z,98056.00
2023-05-05T09:39:22.121Z,98058.56
2023-05-05T09:41:23.428Z,98065.41
2023-05-05T09:43:24.762Z,98065.41
2023-05-05T09:45:26.553Z,98058.63
2023-05-05T09:47:29.819Z,98065.44
2023-05-05T09:49:31.334Z,98066.28
2023-05-05T09:51:32.667Z,98068.03
2023-05-05T09:53:33.968Z,98061.22
2023-05-05T09:55:36.060Z,98061.22
2023-05-05T09:57:37.389Z,98048.47
2023-05-05T09:59:41.863Z,98056.97
2023-05-05T10:01:43.818Z,98051.91
2023-05-05T10:03:45.197Z,98047.66
2023-05-05T10:05:46.529Z,98055.31
2023-05-05T10:07:48.013Z,98057.00
2023-05-05T10:09:49.394Z,98053.63
2023-05-05T10:11:50.835Z,98055.38
2023-05-05T10:13:52.289Z,98051.06
2023-05-05T10:15:53.661Z,98047.69
2023-05-05T10:18:06.924Z,98049.41
2023-05-05T10:20:09.403Z,98053.66
2023-05-05T10:22:10.839Z,98042.63
2023-05-05T10:24:12.149Z,98041.75
2023-05-05T10:26:13.515Z,98040.94
2023-05-05T10:28:14.824Z,98040.94
2023-05-05T10:30:16.111Z,98041.75
2023-05-05T10:32:46.977Z,98043.50
2023-05-05T10:34:39.297Z,98041.75
2023-05-05T10:36:40.621Z,98048.63
2023-05-05T10:38:41.960Z,98046.91
2023-05-05T10:40:43.319Z,98043.53
2023-05-05T10:42:44.680Z,98037.56
2023-05-05T10:44:46.127Z,98031.59
2023-05-05T10:46:47.439Z,98039.25
2023-05-05T10:48:48.814Z,98039.25
2023-05-05T10:50:50.171Z,98035.84
2023-05-05T10:52:51.743Z,98031.66
2023-05-05T10:54:53.083Z,98019.69
2023-05-05T10:56:54.424Z,98024.81
2023-05-05T10:59:00.172Z,98023.16
2023-05-05T11:01:02.533Z,98018.88
2023-05-05T11:03:03.996Z,98021.44
2023-05-05T11:05:05.405Z,98011.22
2023-05-05T11:07:13.381Z,98008.69
2023-05-05T11:09:15.893Z,98014.63
2023-05-05T11:11:17.212Z,98007.81
2023-05-05T11:13:19.220Z,98001.03
2023-05-05T11:15:20.577Z,97997.63
2023-05-05T11:17:22.229Z,97997.63
2023-05-05T11:19:23.601Z,97995.06
2023-05-05T11:21:24.912Z,97995.94
2023-05-05T11:23:26.200Z,97988.28
2023-05-05T11:25:27.509Z,98005.28
2023-05-05T11:27:28.844Z,97993.38
2023-05-05T11:29:30.140Z,97988.31
2023-05-05T11:31:31.684Z,97988.31
2023-05-05T11:33:33.177Z,97991.69
2023-05-05T11:35:34.482Z,97989.19
2023-05-05T11:37:35.795Z,97992.53
2023-05-05T11:39:37.213Z,97985.75
2023-05-05T11:41:38.551Z,97982.38
2023-05-05T11:43:39.848Z,97992.56
2023-05-05T11:45:41.190Z,97983.22
2023-05-05T11:47:42.723Z,97981.53
2023-05-05T11:49:44.171Z,97984.06
2023-05-05T11:51:45.472Z,97982.44
2023-05-05T11:53:46.813Z,97977.38
2023-05-05T11:55:48.115Z,97973.97
2023-05-05T11:57:49.513Z,97968.88
2023-05-05T11:59:51.722Z,97973.13
2023-05-05T12:01:53.075Z,97980.72
2023-05-05T12:03:54.525Z,97983.28
2023-05-05T12:05:55.975Z,97974.81
2023-05-05T12:07:58.530Z,97973.97
2023-05-05T12:09:59.974Z,97967.19
2023-05-05T12:12:01.738Z,97991.00
2023-05-05T12:14:03.068Z,97979.03
2023-05-05T12:16:04.446Z,97977.38
2023-05-05T12:18:06.494Z,97968.88
2023-05-05T12:20:08.961Z,97968.09
2023-05-05T12:22:10.467Z,97973.13
2023-05-05T12:24:11.815Z,97969.72
2023-05-05T12:26:13.139Z,97970.59
2023-05-05T12:28:14.480Z,97974.66
2023-05-05T12:30:16.225Z,97970.41
2023-05-05T12:32:17.698Z,97971.34
2023-05-05T12:34:18.991Z,97971.34
2023-05-05T12:36:20.462Z,97961.16
2023-05-05T12:38:21.757Z,97962.88
2023-05-05T12:40:23.088Z,97960.31
2023-05-05T12:42:24.389Z,97964.50
2023-05-05T12:44:25.684Z,97964.50
2023-05-05T12:46:27.043Z,97953.28
2023-05-05T12:48:28.440Z,97950.41
2023-05-05T12:50:29.740Z,97959.81
2023-05-05T12:52:31.043Z,97948.31
2023-05-05T12:54:32.363Z,97948.09
2023-05-05T12:56:34.334Z,97946.19
2023-05-05T12:58:35.676Z,97952.47
2023-05-05T13:00:37.195Z,97944.75
2023-05-05T13:02:38.548Z,97941.78
2023-05-05T13:04:39.944Z,97948.78
2023-05-05T13:06:43.970Z,97948.88
2023-05-05T13:08:45.396Z,97936.97
2023-05-05T13:10:46.759Z,97943.84
2023-05-05T13:12:48.285Z,97940.50
2023-05-05T13:14:49.615Z,97935.47
2023-05-05T13:16:50.955Z,97938.09
2023-05-05T13:18:53.557Z,97931.31
2023-05-05T13:20:54.897Z,97920.22
2023-05-05T13:22:56.259Z,97921.91
2023-05-05T13:24:57.553Z,97926.22
2023-05-05T13:26:58.882Z,97922.81
2023-05-05T13:29:00.177Z,97927.06
2023-05-05T13:31:01.625Z,97919.47
2023-05-05T13:33:05.699Z,97913.53
2023-05-05T13:35:07.218Z,97910.13
2023-05-05T13:37:08.894Z,97911.84
2023-05-05T13:39:11.287Z,97909.25
2023-05-05T13:41:12.600Z,97906.72
2023-05-05T13:43:13.933Z,97909.25
2023-05-05T13:45:17.315Z,97905.06
2023-05-05T13:47:18.729Z,97899.13
2023-05-05T13:49:20.277Z,97905.09
2023-05-05T13:51:21.579Z,97902.53
2023-05-05T13:53:22.912Z,97894.06
2023-05-05T13:55:27.137Z,97894.06
2023-05-05T13:57:28.497Z,97889.81
2023-05-05T13:59:30.051Z,97895.78
2023-05-05T14:01:31.372Z,97887.34
2023-05-05T14:03:32.735Z,97885.63
2023-05-05T14:05:34.330Z,97878.84
2023-05-05T14:07:35.739Z,97878.81
2023-05-05T14:09:37.062Z,97870.31
2023-05-05T14:11:38.434Z,97877.97
2023-05-05T14:13:39.784Z,97871.22
2023-05-05T14:15:41.086Z,97872.94
2023-05-05T14:17:42.441Z,97870.41
2023-05-05T14:19:44.504Z,97863.59
2023-05-05T14:21:46.007Z,97871.25
2023-05-05T14:23:47.421Z,97861.94
2023-05-05T14:25:48.764Z,97867.03
2023-05-05T14:27:50.073Z,97862.75
2023-05-05T14:29:51.398Z,97858.53
2023-05-05T14:31:52.749Z,97861.94
2023-05-05T14:33:54.051Z,97860.28
2023-05-05T14:35:55.393Z,97858.63
2023-05-05T14:37:56.715Z,97860.41
2023-05-05T14:39:58.271Z,97855.31
2023-05-05T14:41:59.670Z,97858.84
2023-05-05T14:44:00.996Z,97857.16
2023-05-05T14:46:06.763Z,97858.06
2023-05-05T14:48:08.321Z,97864.06
2023-05-05T14:50:09.902Z,97856.44
2023-05-05T14:52:11.233Z,97857.34
2023-05-05T14:54:26.893Z,97855.66
2023-05-05T14:56:29.064Z,97859.09
2023-05-05T14:58:31.094Z,97863.34
2023-05-05T15:00:32.619Z,97864.25
2023-05-05T15:02:34.026Z,97865.97
2023-05-05T15:04:35.495Z,97862.63
2023-05-05T15:06:36.990Z,97862.66
2023-05-05T15:08:39.069Z,97866.06
2023-05-05T15:10:40.680Z,97858.44
2023-05-05T15:12:42.977Z,97866.13
2023-05-05T15:14:44.369Z,97855.91
2023-05-05T15:16:46.790Z,97859.31
2023-05-05T15:18:48.155Z,97858.47
2023-05-05T15:20:49.459Z,97855.97
2023-05-05T15:22:50.920Z,97858.53
2023-05-05T15:24:52.269Z,97868.75
2023-05-05T15:26:53.589Z,97850.94
2023-05-05T15:28:54.913Z,97852.75
2023-05-05T15:30:56.229Z,97845.13
2023-05-05T15:32:57.653Z,97851.88
2023-05-05T15:34:58.975Z,97844.22
2023-05-05T15:37:00.412Z,97839.97
2023-05-05T15:39:02.195Z,97845.06
2023-05-05T15:41:03.496Z,97834.84
2023-05-05T15:43:07.695Z,97839.97
2023-05-05T15:45:12.024Z,97835.72
2023-05-05T15:47:13.405Z,97842.56
2023-05-05T15:49:14.779Z,97840.81
2023-05-05T15:51:16.338Z,97842.56
2023-05-05T15:53:17.689Z,97839.16
2023-05-05T15:55:19.021Z,97838.34
2023-05-05T15:57:20.335Z,97835.81
2023-05-05T15:59:21.723Z,97842.63
2023-05-05T16:01:23.357Z,97839.25
2023-05-05T16:03:25.107Z,97841.81
2023-05-05T16:05:26.681Z,97829.94
2023-05-05T16:07:27.968Z,97837.59
2023-05-05T16:09:29.319Z,97832.53
2023-05-05T16:11:30.887Z,97833.41
2023-05-05T16:13:32.726Z,97830.03
2023-05-05T16:15:34.136Z,97836.84
2023-05-05T16:17:35.546Z,97832.63
2023-05-05T16:19:36.858Z,97821.34
2023-05-05T16:21:38.202Z,97825.72
2023-05-05T16:23:39.534Z,97828.97
2023-05-05T16:25:40.868Z,97817.94
2023-05-05T16:27:42.325Z,97817.63
2023-05-05T16:29:43.763Z,97821.63
2023-05-05T16:31:45.121Z,97819.91
2023-05-05T16:33:46.483Z,97821.63
2023-05-05T16:35:48.095Z,97826.41
2023-05-05T16:37:49.567Z,97821.81
2023-05-05T16:39:50.899Z,97822.03
2023-05-05T16:41:52.195Z,97822.94
2023-05-05T16:43:53.745Z,97817.06
2023-05-05T16:45:55.123Z,97815.34
2023-05-05T16:47:56.509Z,97828.97
2023-05-05T16:49:57.929Z,97817.03
2023-05-05T16:51:59.283Z,97820.47
2023-05-05T16:54:00.838Z,97822.97
2023-05-05T16:56:02.161Z,97830.69
2023-05-05T16:58:03.493Z,97826.25
2023-05-05T17:00:05.400Z,97828.75
2023-05-05T17:02:06.851Z,97833.25
2023-05-05T17:04:08.295Z,97836.91
2023-05-05T17:06:09.719Z,97832.78
2023-05-05T17:08:14.533Z,97839.19
2023-05-05T17:10:15.833Z,97835.56
2023-05-05T17:12:17.138Z,97843.94
2023-05-05T17:14:18.578Z,97833.66
2023-05-05T17:16:19.983Z,97836.66
2023-05-05T17:18:22.712Z,97834.81
2023-05-05T17:20:24.033Z,97827.53
2023-05-05T17:22:25.451Z,97833.81
2023-05-05T17:24:26.774Z,97838.53
2023-05-05T17:26:28.104Z,97830.47
2023-05-05T17:28:29.405Z,97838.34
2023-05-05T17:30:33.709Z,97835.72
2023-05-05T17:32:35.097Z,97843.13
2023-05-05T17:34:36.448Z,97838.34
2023-05-05T17:36:37.786Z,97842.84
2023-05-05T17:38:39.092Z,97840.13
2023-05-05T17:40:40.442Z,97838.59
2023-05-05T17:42:41.743Z,97831.69
2023-05-05T17:44:43.085Z,97839.09
2023-05-05T17:46:44.522Z,97842.28
2023-05-05T17:48:46.156Z,97830.53
2023-05-05T17:50:47.587Z,97826.91
2023-05-05T17:52:48.924Z,97829.00
2023-05-05T17:54:50.443Z,97825.31
2023-05-05T17:56:51.782Z,97827.16
2023-05-05T17:58:53.392Z,97824.47
2023-05-05T18:00:54.707Z,97828.84
2023-05-05T18:02:56.133Z,97828.94
2023-05-05T18:04:57.542Z,97828.78
2023-05-05T18:06:58.847Z,97828.09
2023-05-05T18:09:00.162Z,97698.44
2023-05-05T18:11:02.249Z,97832.00
2023-05-05T18:13:03.597Z,97830.94
2023-05-05T18:15:05.616Z,97829.22
2023-05-05T18:17:06.953Z,97827.22
2023-05-05T18:19:08.245Z,97833.69
2023-05-05T18:21:12.175Z,97827.66
2023-05-05T18:23:13.750Z,97829.53
2023-05-05T18:25:15.158Z,97827.16
2023-05-05T18:27:16.507Z,97816.63
2023-05-05T18:29:17.987Z,97813.06
2023-05-05T18:31:19.438Z,97816.47
2023-05-05T18:33:20.750Z,97810.56
2023-05-05T18:35:22.405Z,97809.22
2023-05-05T18:37:23.756Z,97811.16
2023-05-05T18:39:25.271Z,97812.09
2023-05-05T18:41:29.594Z,97807.19
2023-05-05T18:43:30.917Z,97809.94
2023-05-05T18:45:32.264Z,97802.28
2023-05-05T18:47:33.888Z,97802.28
2023-05-05T18:49:35.240Z,97809.38
2023-05-05T18:51:39.633Z,97803.22
2023-05-05T18:53:41.508Z,97805.09
2023-05-05T18:55:43.976Z,97814.56
2023-05-05T18:57:45.445Z,97809.50
2023-05-05T18:59:49.548Z,97808.75
2023-05-05T19:01:50.884Z,97807.91
2023-05-05T19:03:52.231Z,97811.19
2023-05-05T19:05:54.252Z,97809.09
2023-05-05T19:07:55.553Z,97810.13
2023-05-05T19:09:56.949Z,97804.22
2023-05-05T19:11:58.382Z,97816.06
2023-05-05T19:14:00.193Z,97814.00
2023-05-05T19:16:01.522Z,97813.47
2023-05-05T19:18:03.004Z,97823.59
2023-05-05T19:20:04.413Z,97813.44
2023-05-05T19:22:06.710Z,97817.22
2023-05-05T19:24:08.050Z,97812.78
2023-05-05T19:26:10.335Z,97819.53
2023-05-05T19:28:12.045Z,97817.06
2023-05-05T19:30:13.509Z,97806.75
2023-05-05T19:32:15.017Z,97804.94
2023-05-05T19:34:16.437Z,97808.28
2023-05-05T19:36:19.141Z,97803.16
2023-05-05T19:38:20.615Z,97803.94
2023-05-05T19:40:21.912Z,97791.06
2023-05-05T19:42:23.267Z,97798.75
2023-05-05T19:44:24.626Z,97791.81
2023-05-05T19:46:29.293Z,97790.69
2023-05-05T19:48:31.439Z,97791.47
2023-05-05T19:50:32.733Z,97789.06
2023-05-05T19:52:36.558Z,97787.97
2023-05-05T19:54:37.976Z,97792.41
2023-05-05T19:56:39.632Z,97777.03
2023-05-05T19:58:40.973Z,97789.56
2023-05-05T20:00:42.437Z,97786.34
2023-05-05T20:02:45.278Z,97790.09
2023-05-05T20:04:46.736Z,97793.25
2023-05-05T20:06:50.801Z,97785.94
2023-05-05T20:08:52.462Z,97794.78
2023-05-05T20:10:53.784Z,97794.38
2023-05-05T20:12:55.181Z,97789.88
2023-05-05T20:14:56.528Z,97792.31
2023-05-05T20:16:57.871Z,97788.66
2023-05-05T20:21:00.735Z,97780.28
2023-05-05T20:23:02.037Z,97774.31
2023-05-05T20:25:03.408Z,97784.84
2023-05-05T20:27:05.682Z,97786.47
2023-05-05T20:29:06.977Z,97781.94
2023-05-05T20:31:08.357Z,97785.31
2023-05-05T20:33:09.706Z,97782.84
2023-05-05T20:35:12.886Z,97779.09
2023-05-05T20:37:14.278Z,97775.53
2023-05-05T20:39:16.145Z,97785.28
2023-05-05T20:41:17.567Z,97767.94
2023-05-05T20:43:18.983Z,97775.53
2023-05-05T20:45:20.340Z,97777.22
2023-05-05T20:47:21.759Z,97774.66
2023-05-05T20:49:23.073Z,97779.00
2023-05-05T20:51:24.385Z,97771.84
2023-05-05T20:53:26.238Z,97772.88
2023-05-05T20:55:27.581Z,97772.09
2023-05-05T20:57:29.400Z,97765.19
2023-05-05T20:59:30.773Z,97767.75
2023-05-05T21:01:32.248Z,97764.25
2023-05-05T21:03:33.693Z,97767.31
2023-05-05T21:05:35.944Z,97767.59
2023-05-05T21:07:37.300Z,97767.66
2023-05-05T21:09:38.596Z,97768.63
2023-05-05T21:11:40.007Z,97761.88
2023-05-05T21:13:41.311Z,97762.03
2023-05-05T21:15:42.608Z,97758.53
2023-05-05T21:17:43.983Z,97755.56
2023-05-05T21:19:45.359Z,97765.16
2023-05-05T21:21:46.659Z,97761.94
2023-05-05T21:23:48.171Z,97759.06
2023-05-05T21:25:49.507Z,97762.06
2023-05-05T21:27:51.003Z,97754.31
2023-05-05T21:29:52.341Z,97749.25
2023-05-05T21:31:53.773Z,97747.59
2023-05-05T21:33:55.426Z,97745.97
2023-05-05T21:35:56.732Z,97752.00
2023-05-05T21:37:58.122Z,97745.28
2023-05-05T21:39:59.468Z,97740.28
2023-05-05T21:42:00.790Z,97743.78
2023-05-05T21:44:02.402Z,97739.59
2023-05-05T21:46:03.834Z,97741.31
2023-05-05T21:48:05.576Z,97742.22
2023-05-05T21:50:07.096Z,97743.97
2023-05-05T21:52:08.548Z,97737.22
2023-05-05T21:54:09.912Z,97734.72
2023-05-05T21:56:11.244Z,97737.28
2023-05-05T21:58:12.648Z,97739.91
2023-05-05T22:00:16.852Z,97737.38
2023-05-05T22:02:18.278Z,97749.41
2023-05-05T22:04:19.620Z,97736.72
2023-05-05T22:06:20.928Z,97743.53
2023-05-05T22:08:22.319Z,97741.84
2023-05-05T22:10:23.651Z,97737.66
2023-05-05T22:12:25.011Z,97742.81
2023-05-05T22:14:26.369Z,97742.84
2023-05-05T22:16:27.691Z,97735.25
2023-05-05T22:18:29.154Z,97732.75
2023-05-05T22:20:30.900Z,97728.50
2023-05-05T22:22:32.502Z,97723.44
2023-05-05T22:24:33.807Z,97731.97
2023-05-05T22:26:35.212Z,97739.66
2023-05-05T22:28:36.626Z,97742.25
2023-05-05T22:30:37.960Z,97729.56
2023-05-05T22:32:39.314Z,97730.41
2023-05-05T22:34:40.653Z,97729.63
2023-05-05T22:36:42.257Z,97735.56
2023-05-05T22:38:43.598Z,97736.47
2023-05-05T22:40:44.947Z,97741.56
2023-05-05T22:42:46.292Z,97744.13
2023-05-05T22:44:47.600Z,97741.56
2023-05-05T22:46:48.966Z,97745.72
2023-05-05T22:48:54.217Z,97742.09
2023-05-05T22:50:57.149Z,97742.78
2023-05-05T22:52:58.539Z,97738.50
2023-05-05T22:54:59.888Z,97728.16
2023-05-05T22:57:02.307Z,97725.50
2023-05-05T22:59:03.722Z,97723.75
2023-05-05T23:01:05.270Z,97728.00
2023-05-05T23:03:06.702Z,97722.97
2023-05-05T23:05:08.300Z,97731.50
2023-05-05T23:07:09.919Z,97728.16
2023-05-05T23:09:11.237Z,97728.16
2023-05-05T23:11:12.570Z,97726.53
2023-05-05T23:13:14.022Z,97576.56
2023-05-05T23:15:15.718Z,97722.25
2023-05-05T23:17:17.026Z,97733.13
2023-05-05T23:19:18.374Z,97729.66
2023-05-05T23:21:19.709Z,97729.66
2023-05-05T23:23:21.084Z,97737.38
2023-05-05T23:25:22.384Z,97728.84
2023-05-05T23:27:23.820Z,97723.75
2023-05-05T23:29:25.195Z,97719.44
2023-05-05T23:31:26.625Z,97724.53
2023-05-05T23:33:28.084Z,97722.75
2023-05-05T23:35:29.420Z,97714.25
2023-05-05T23:37:31.026Z,97717.72
2023-05-05T23:39:32.368Z,97712.69
2023-05-05T23:41:33.663Z,97717.00
2023-05-05T23:43:34.971Z,97713.66
2023-05-05T23:45:36.307Z,97711.13
2023-05-05T23:47:37.710Z,97711.19
2023-05-05T23:49:39.070Z,97715.47
2023-05-05T23:51:40.376Z,97724.03